Time;durP1;ratioP1;P1;durP2;ratioP2;P2;SDS_P1;SDS_P2;PMS_P1;PMS_P2;Temp;Humidity;BMP_temperature;BMP_pressure;BME280_temperature;BME280_humidity;BME280_pressure;Samples;Min_cycle;Max_cycle;Signal;HPM_P1;HPM_P2
2022/02/26 00:02:18;;;;;;;5.45;1.98;;;;;;;3.43;79.35;103371.19;5037008;28;20356;-77
2022/02/26 00:04:43;;;;;;;4.57;2.08;;;;;;;3.40;79.35;103374.59;5024088;28;20303;-78
2022/02/26 00:07:09;;;;;;;6.38;1.73;;;;;;;3.38;79.54;103363.28;5035729;28;20064;-77
2022/02/26 00:09:34;;;;;;;6.13;1.60;;;;;;;3.37;79.32;103371.03;5036920;28;20109;-77
2022/02/26 00:12:00;;;;;;;3.78;2.00;;;;;;;3.35;79.51;103376.16;5019219;28;20092;-77
2022/02/26 00:14:26;;;;;;;4.45;1.50;;;;;;;3.34;79.45;103376.09;5036604;28;20045;-77
2022/02/26 00:16:51;;;;;;;4.13;1.75;;;;;;;3.31;79.60;103382.09;5035830;28;20037;-77
2022/02/26 00:19:16;;;;;;;7.47;2.00;;;;;;;3.29;79.58;103380.25;5019021;28;20256;-77
2022/02/26 00:21:42;;;;;;;3.33;1.55;;;;;;;3.26;79.72;103381.94;5035775;28;20057;-77
2022/02/26 00:24:07;;;;;;;5.07;1.63;;;;;;;3.24;79.62;103388.78;5036237;28;20060;-77
2022/02/26 00:26:33;;;;;;;2.20;1.42;;;;;;;3.22;79.61;103395.63;5037088;28;20052;-77
2022/02/26 00:28:59;;;;;;;6.07;1.75;;;;;;;3.20;79.67;103384.34;5018723;28;20124;-77
2022/02/26 00:31:24;;;;;;;5.65;1.90;;;;;;;3.19;79.74;103385.16;5036911;28;20104;-77
2022/02/26 00:33:50;;;;;;;3.42;1.50;;;;;;;3.17;79.81;103375.59;5018782;28;20025;-77
2022/02/26 00:36:15;;;;;;;6.65;2.22;;;;;;;3.14;80.03;103381.56;5035163;28;20037;-77
2022/02/26 00:38:40;;;;;;;9.60;1.98;;;;;;;3.14;79.83;103383.28;5019230;28;20041;-77
2022/02/26 00:41:06;;;;;;;4.43;1.92;;;;;;;3.12;79.80;103382.34;5035291;28;20053;-77
2022/02/26 00:43:32;;;;;;;5.00;1.70;;;;;;;3.11;79.83;103381.47;5034908;28;20037;-77
2022/02/26 00:45:57;;;;;;;5.80;2.47;;;;;;;3.10;79.97;103386.59;5036391;28;20021;-77
2022/02/26 00:49:46;;;;;;;6.47;2.00;;;;;;;3.08;79.92;103390.00;5021831;28;20126;-77
2022/02/26 00:51:08;;;;;;;6.50;2.33;;;;;;;3.07;79.78;103387.38;5038313;28;20403;-77
2022/02/26 00:53:33;;;;;;;6.40;1.95;;;;;;;3.06;79.76;103398.56;5040131;28;20045;-77
2022/02/26 00:55:59;;;;;;;6.57;2.63;;;;;;;3.03;79.77;103395.88;5049656;28;20033;-77
2022/02/26 00:58:24;;;;;;;7.13;2.22;;;;;;;3.01;79.78;103408.78;5049584;28;20037;-77
2022/02/26 01:00:50;;;;;;;6.00;2.47;;;;;;;3.00;79.58;103403.53;5030465;28;20044;-77
2022/02/26 01:03:15;;;;;;;7.82;2.35;;;;;;;2.98;79.83;103402.63;5050489;28;20040;-77
2022/02/26 01:05:40;;;;;;;5.40;2.40;;;;;;;2.94;79.70;103401.63;5015331;28;20033;-77
2022/02/26 01:08:06;;;;;;;4.10;2.20;;;;;;;2.92;79.65;103398.13;5030808;28;20041;-77
2022/02/26 01:10:32;;;;;;;5.10;2.25;;;;;;;2.90;79.63;103399.78;5032355;28;20048;-77
2022/02/26 01:12:57;;;;;;;2.85;1.77;;;;;;;2.88;79.58;103384.19;5048377;28;20037;-77
2022/02/26 01:15:23;;;;;;;7.07;1.83;;;;;;;2.85;79.70;103381.50;5012377;28;20036;-77
2022/02/26 01:17:48;;;;;;;3.20;2.20;;;;;;;2.85;79.79;103380.63;5006441;28;20357;-76
2022/02/26 01:20:13;;;;;;;4.63;1.85;;;;;;;2.84;80.16;103386.66;5040325;28;20041;-77
2022/02/26 01:22:39;;;;;;;5.70;1.95;;;;;;;2.84;80.00;103382.34;5006301;28;20061;-77
2022/02/26 01:25:05;;;;;;;4.03;1.70;;;;;;;2.82;80.08;103376.25;5022392;28;20025;-77
2022/02/26 01:27:31;;;;;;;3.75;2.15;;;;;;;2.82;80.10;103372.75;5022373;28;20274;-77
2022/02/26 01:29:56;;;;;;;3.90;2.03;;;;;;;2.80;79.75;103370.16;5022444;28;20025;-77
2022/02/26 01:32:22;;;;;;;4.95;2.10;;;;;;;2.78;80.00;103370.91;5040157;28;20044;-76
2022/02/26 01:34:47;;;;;;;7.63;2.10;;;;;;;2.75;79.82;103379.47;5040043;28;20097;-77
2022/02/26 01:37:13;;;;;;;2.40;1.58;;;;;;;2.75;79.93;103368.22;5006274;28;20042;-76
2022/02/26 01:39:38;;;;;;;6.38;2.00;;;;;;;2.72;79.91;103358.66;5040337;28;20256;-77
2022/02/26 01:42:05;;;;;;;6.43;2.22;;;;;;;2.72;79.91;103373.31;5006142;28;20135;-77
2022/02/26 01:44:30;;;;;;;5.15;2.53;;;;;;;2.70;79.99;103378.44;5040023;28;20225;-77
2022/02/26 01:46:56;;;;;;;7.13;2.20;;;;;;;2.68;80.08;103378.38;5022095;28;20041;-77
2022/02/26 01:49:21;;;;;;;3.88;2.10;;;;;;;2.67;80.01;103391.25;5022126;28;20292;-77
2022/02/26 01:51:47;;;;;;;3.92;1.92;;;;;;;2.65;80.00;103392.94;5022451;28;20352;-77
2022/02/26 01:54:13;;;;;;;4.30;2.00;;;;;;;2.64;80.17;103391.19;5021259;28;20057;-77
2022/02/26 01:56:39;;;;;;;10.32;1.85;;;;;;;2.63;80.17;103389.41;5040090;28;20375;-77
2022/02/26 01:59:04;;;;;;;2.22;1.35;;;;;;;2.63;80.29;103400.63;5005543;28;20309;-77
2022/02/26 02:01:29;;;;;;;4.68;1.67;;;;;;;2.63;80.23;103397.19;5039548;28;20052;-77
2022/02/26 02:03:55;;;;;;;4.93;2.33;;;;;;;2.60;80.31;103391.88;5021783;28;20056;-77
2022/02/26 02:06:21;;;;;;;5.00;1.70;;;;;;;2.58;80.20;103402.19;5039689;28;20086;-77
2022/02/26 02:08:47;;;;;;;5.95;2.22;;;;;;;2.58;80.25;103401.31;5039843;28;20325;-77
2022/02/26 02:11:13;;;;;;;9.73;2.17;;;;;;;2.56;80.21;103397.81;5039253;28;20033;-77
2022/02/26 02:13:38;;;;;;;3.15;1.83;;;;;;;2.54;80.26;103384.81;5005405;28;20461;-77
2022/02/26 02:16:05;;;;;;;7.03;2.28;;;;;;;2.52;80.29;103393.34;5021372;28;20074;-77
2022/02/26 02:18:30;;;;;;;6.93;1.63;;;;;;;2.49;80.08;103387.25;5039377;28;20061;-77
2022/02/26 02:20:57;;;;;;;8.75;2.03;;;;;;;2.47;80.25;103375.97;5021421;28;20334;-77
2022/02/26 02:23:23;;;;;;;7.18;2.00;;;;;;;2.46;80.01;103381.09;5005509;28;20344;-77
2022/02/26 02:25:51;;;;;;;3.88;1.80;;;;;;;2.43;79.94;103392.19;5039174;28;20059;-77
2022/02/26 02:28:17;;;;;;;7.85;2.00;;;;;;;2.42;80.11;103389.56;5021010;28;20025;-77
2022/02/26 02:30:42;;;;;;;3.65;2.00;;;;;;;2.40;80.15;103389.53;5021494;28;20060;-77
2022/02/26 02:33:09;;;;;;;4.65;2.05;;;;;;;2.39;80.31;103397.25;5021156;28;20062;-77
2022/02/26 02:35:40;;;;;;;3.97;2.03;;;;;;;2.36;80.24;103404.88;5021651;28;20029;-77
2022/02/26 02:38:14;;;;;;;6.25;2.00;;;;;;;2.34;80.03;103407.41;5038579;28;20071;-77
2022/02/26 02:40:41;;;;;;;2.97;1.65;;;;;;;2.34;80.33;103398.78;5039022;28;20067;-77
2022/02/26 02:43:06;;;;;;;7.45;1.77;;;;;;;2.31;80.23;103399.56;5038683;28;20044;-77
2022/02/26 02:45:33;;;;;;;3.42;2.10;;;;;;;2.30;80.26;103402.97;5021057;28;20329;-77
2022/02/26 02:47:59;;;;;;;7.43;2.00;;;;;;;2.28;80.57;103418.44;5038355;28;20041;-77
2022/02/26 02:50:25;;;;;;;4.05;1.88;;;;;;;2.28;80.35;103420.13;5038757;28;20037;-77
2022/02/26 02:52:50;;;;;;;8.75;2.30;;;;;;;2.28;80.42;103428.75;5038713;28;20345;-77
2022/02/26 02:55:16;;;;;;;4.70;1.70;;;;;;;2.28;80.47;103426.19;5021156;28;20045;-77
2022/02/26 02:57:45;;;;;;;4.32;2.17;;;;;;;2.28;81.04;103433.06;5038776;28;20033;-77
2022/02/26 03:00:13;;;;;;;3.55;1.90;;;;;;;2.29;80.62;103427.94;5038110;28;20033;-77
2022/02/26 03:02:38;;;;;;;3.53;2.33;;;;;;;2.30;80.72;103428.81;5021068;28;20072;-77
2022/02/26 03:05:04;;;;;;;2.67;1.65;;;;;;;2.28;80.68;103427.91;5020335;28;20045;-76
2022/02/26 03:07:30;;;;;;;9.40;2.17;;;;;;;2.28;80.64;103428.75;5020453;28;20198;-77
2022/02/26 03:09:55;;;;;;;4.43;2.03;;;;;;;2.26;80.69;103425.25;5038129;28;20041;-79
2022/02/26 03:12:21;;;;;;;3.40;1.58;;;;;;;2.24;80.63;103418.28;5038175;28;20041;-79
2022/02/26 03:14:46;;;;;;;3.95;2.03;;;;;;;2.22;80.66;103425.06;5020701;28;20265;-79
2022/02/26 03:17:11;;;;;;;4.60;2.10;;;;;;;2.20;80.71;103425.03;5037903;28;20045;-79
2022/02/26 03:19:37;;;;;;;5.05;2.20;;;;;;;2.19;80.62;103433.63;5038172;28;20093;-79
2022/02/26 03:22:04;;;;;;;6.55;2.17;;;;;;;2.17;80.45;103442.16;5037669;28;20049;-79
2022/02/26 03:24:30;;;;;;;6.63;1.85;;;;;;;2.15;80.52;103444.69;5004096;28;20039;-79
2022/02/26 03:26:57;;;;;;;7.85;1.80;;;;;;;2.14;80.70;103442.91;5004305;28;20045;-79
2022/02/26 03:29:28;;;;;;;3.47;1.80;;;;;;;2.11;80.60;103433.34;5003693;28;20213;-79
2022/02/26 03:31:54;;;;;;;6.85;2.28;;;;;;;2.09;80.57;103445.34;5037649;28;20041;-79
2022/02/26 03:34:20;;;;;;;4.25;2.00;;;;;;;2.07;80.57;103446.09;5037899;28;20040;-79
2022/02/26 03:36:48;;;;;;;1.77;1.65;;;;;;;2.05;80.50;103446.03;5038020;28;20097;-79
2022/02/26 03:39:14;;;;;;;4.72;1.60;;;;;;;2.04;80.52;103451.19;5037854;28;20053;-79
2022/02/26 03:41:39;;;;;;;4.10;1.90;;;;;;;2.02;80.62;103457.97;5020472;28;20044;-79
2022/02/26 03:44:05;;;;;;;6.18;2.35;;;;;;;2.00;80.45;103462.19;5037437;28;20033;-79
2022/02/26 03:46:30;;;;;;;3.97;2.03;;;;;;;1.99;80.59;103463.03;5020525;28;20043;-79
2022/02/26 03:48:56;;;;;;;8.52;2.40;;;;;;;1.98;80.70;103471.59;5037550;28;20064;-77
2022/02/26 03:51:21;;;;;;;2.38;1.38;;;;;;;1.96;80.57;103475.84;5020072;28;20322;-77
2022/02/26 03:53:46;;;;;;;5.10;2.25;;;;;;;1.94;80.57;103478.38;5020277;28;20068;-77
2022/02/26 03:56:12;;;;;;;4.88;1.95;;;;;;;1.93;80.36;103476.63;5019560;28;20049;-77
2022/02/26 03:58:37;;;;;;;3.35;1.65;;;;;;;1.92;80.50;103480.00;5020189;28;20056;-77
2022/02/26 04:01:03;;;;;;;3.35;1.83;;;;;;;1.90;80.62;103479.94;5037609;28;20034;-77
2022/02/26 04:03:28;;;;;;;4.65;1.98;;;;;;;1.88;80.55;103476.44;5019650;28;20029;-77
2022/02/26 04:05:55;;;;;;;4.38;2.25;;;;;;;1.87;80.79;103474.69;5037408;28;20030;-77
2022/02/26 04:08:20;;;;;;;4.40;2.22;;;;;;;1.86;80.56;103477.22;5003746;28;20048;-77
2022/02/26 04:10:46;;;;;;;4.45;1.70;;;;;;;1.83;80.67;103475.38;5020009;28;20085;-77
2022/02/26 04:13:11;;;;;;;7.60;2.67;;;;;;;1.82;80.64;103473.63;5037031;28;20071;-77
2022/02/26 04:15:36;;;;;;;4.70;2.20;;;;;;;1.82;80.76;103475.31;5037583;28;20198;-77
2022/02/26 04:18:02;;;;;;;3.78;2.20;;;;;;;1.81;80.66;103478.75;5041537;28;20118;-77
2022/02/26 04:20:27;;;;;;;2.75;1.65;;;;;;;1.78;80.63;103474.31;5009591;28;20083;-77
2022/02/26 04:22:53;;;;;;;7.28;2.70;;;;;;;1.78;80.67;103483.78;5044007;28;20045;-77
2022/02/26 04:25:18;;;;;;;6.47;2.08;;;;;;;1.76;80.84;103481.13;5026554;28;20018;-77
2022/02/26 04:27:44;;;;;;;5.60;1.75;;;;;;;1.76;80.78;103482.84;5026454;28;20091;-77
2022/02/26 04:30:10;;;;;;;4.43;2.03;;;;;;;1.75;80.76;103479.38;5026114;28;20206;-77
2022/02/26 04:32:37;;;;;;;7.05;2.65;;;;;;;1.73;81.02;103481.03;5044168;28;20033;-77
2022/02/26 04:35:04;;;;;;;5.32;2.53;;;;;;;1.72;80.81;103476.69;5025857;28;20029;-77
2022/02/26 04:37:30;;;;;;;3.97;1.85;;;;;;;1.72;80.77;103480.13;5043943;28;20103;-77
2022/02/26 04:39:55;;;;;;;3.40;1.90;;;;;;;1.71;80.62;103483.56;5026260;28;20048;-77
2022/02/26 04:42:21;;;;;;;4.82;2.08;;;;;;;1.71;80.75;103480.97;5043591;28;20088;-77
2022/02/26 04:44:47;;;;;;;3.65;1.58;;;;;;;1.72;81.04;103487.00;5026178;28;20265;-77
2022/02/26 04:47:13;;;;;;;2.67;1.77;;;;;;;1.71;80.85;103483.56;5026128;28;20033;-77
2022/02/26 04:49:39;;;;;;;5.05;1.77;;;;;;;1.70;81.04;103488.66;5043999;28;20037;-77
2022/02/26 04:52:05;;;;;;;4.45;1.70;;;;;;;1.69;81.05;103490.38;5025768;28;20399;-77
2022/02/26 04:54:31;;;;;;;3.08;2.15;;;;;;;1.70;80.98;103483.50;5009592;28;20033;-77
2022/02/26 04:56:56;;;;;;;3.60;1.95;;;;;;;1.69;81.11;103497.22;5025832;28;20025;-77
2022/02/26 04:59:22;;;;;;;3.28;1.88;;;;;;;1.69;80.86;103490.38;5025962;28;20097;-77
2022/02/26 05:01:47;;;;;;;6.60;1.95;;;;;;;1.69;81.13;103498.13;5043591;28;20033;-77
2022/02/26 05:04:13;;;;;;;2.38;1.55;;;;;;;1.69;81.07;103492.06;5025933;28;20033;-77
2022/02/26 05:06:38;;;;;;;4.38;1.88;;;;;;;1.68;81.34;103498.94;5009807;28;20052;-77
2022/02/26 05:09:03;;;;;;;3.13;2.10;;;;;;;1.68;81.34;103492.91;5009637;28;20383;-77
2022/02/26 05:11:29;;;;;;;2.92;1.33;;;;;;;1.68;81.23;103492.91;5026282;28;20039;-77
2022/02/26 05:13:54;;;;;;;4.40;1.90;;;;;;;1.67;81.17;103492.03;5025628;28;20044;-77
2022/02/26 05:16:20;;;;;;;4.20;2.15;;;;;;;1.69;81.23;103486.88;5009568;28;20061;-77
2022/02/26 05:18:45;;;;;;;6.13;1.88;;;;;;;1.68;81.25;103485.13;5009868;28;20065;-77
2022/02/26 05:21:12;;;;;;;2.55;1.70;;;;;;;1.67;81.49;103498.88;5025561;28;20072;-77
2022/02/26 05:23:41;;;;;;;4.55;2.10;;;;;;;1.67;81.57;103493.69;5043548;28;20236;-77
2022/02/26 05:26:08;;;;;;;3.90;1.77;;;;;;;1.67;81.50;103504.03;5043316;28;20261;-77
2022/02/26 05:28:33;;;;;;;2.58;1.80;;;;;;;1.66;81.31;103505.75;5023679;28;20044;-77
2022/02/26 05:30:58;;;;;;;1.70;1.48;;;;;;;1.66;81.66;103505.75;5040104;28;20272;-77
2022/02/26 05:33:24;;;;;;;3.97;1.80;;;;;;;1.65;81.53;103509.13;5040219;28;20033;-77
2022/02/26 05:35:49;;;;;;;5.35;1.60;;;;;;;1.64;81.47;103509.09;5022390;28;20037;-77
2022/02/26 05:38:14;;;;;;;4.18;1.70;;;;;;;1.62;81.50;103514.19;5022416;28;20236;-77
2022/02/26 05:40:40;;;;;;;5.03;1.70;;;;;;;1.63;81.38;103523.69;5006204;28;20029;-77
2022/02/26 05:43:06;;;;;;;1.77;1.40;;;;;;;1.61;81.37;103519.31;5005763;28;20048;-77
2022/02/26 05:45:31;;;;;;;2.92;1.80;;;;;;;1.60;81.53;103523.59;5022437;28;20029;-77
2022/02/26 05:47:57;;;;;;;6.57;1.73;;;;;;;1.58;81.67;103520.03;5022094;28;20379;-77
2022/02/26 05:50:22;;;;;;;4.47;1.83;;;;;;;1.58;81.56;103527.78;5040140;28;20052;-77
2022/02/26 05:52:47;;;;;;;3.58;1.75;;;;;;;1.57;81.45;103531.22;5022161;28;20051;-77
2022/02/26 05:55:13;;;;;;;2.88;1.60;;;;;;;1.56;81.37;103524.28;5005892;28;20227;-77
2022/02/26 05:57:38;;;;;;;4.65;1.60;;;;;;;1.56;81.54;103531.16;5005986;28;20049;-77
2022/02/26 06:00:05;;;;;;;2.85;1.58;;;;;;;1.54;81.55;103531.09;5039725;28;20029;-77
2022/02/26 06:02:30;;;;;;;5.90;1.83;;;;;;;1.53;81.53;103532.78;5039531;28;20040;-77
2022/02/26 06:04:56;;;;;;;2.65;1.88;;;;;;;1.52;81.52;103535.31;5039449;28;20042;-77
2022/02/26 06:07:21;;;;;;;2.13;1.45;;;;;;;1.52;81.70;103538.75;5005437;28;20337;-77
2022/02/26 06:09:47;;;;;;;3.38;1.90;;;;;;;1.53;81.66;103539.66;5021942;28;20261;-77
2022/02/26 06:12:12;;;;;;;4.82;1.85;;;;;;;1.51;81.78;103537.03;5018984;28;20083;-77
2022/02/26 06:14:37;;;;;;;5.95;1.80;;;;;;;1.52;81.89;103545.66;5020205;28;20244;-77
2022/02/26 06:17:03;;;;;;;3.60;1.52;;;;;;;1.52;81.78;103540.47;5036952;28;20037;-77
2022/02/26 06:19:29;;;;;;;2.97;2.03;;;;;;;1.52;81.84;103543.94;5018983;28;20052;-77
2022/02/26 06:21:54;;;;;;;3.53;1.90;;;;;;;1.51;81.85;103537.03;5017758;28;20045;-77
2022/02/26 06:24:20;;;;;;;3.83;2.72;;;;;;;1.50;81.95;103537.84;5016646;28;20337;-77
2022/02/26 06:26:45;;;;;;;3.63;1.40;;;;;;;1.52;82.13;103548.22;5018056;28;20045;-77
2022/02/26 06:29:10;;;;;;;2.55;1.60;;;;;;;1.52;82.00;103546.50;5016033;28;20403;-77
2022/02/26 06:31:36;;;;;;;3.28;1.50;;;;;;;1.51;82.02;103542.19;5016552;28;20052;-77
2022/02/26 06:34:01;;;;;;;4.20;1.40;;;;;;;1.51;82.19;103544.78;5016330;28;20095;-77
2022/02/26 06:36:26;;;;;;;2.65;1.83;;;;;;;1.51;82.02;103549.03;4999851;28;20111;-77
2022/02/26 06:38:52;;;;;;;3.08;1.73;;;;;;;1.51;81.96;103557.69;5015885;28;20033;-77
2022/02/26 06:41:17;;;;;;;2.33;1.70;;;;;;;1.50;82.26;103558.50;5015798;28;20054;-77
2022/02/26 06:43:43;;;;;;;2.03;1.45;;;;;;;1.50;82.31;103563.66;5017569;28;20210;-77
2022/02/26 06:46:08;;;;;;;2.38;1.67;;;;;;;1.50;82.29;103562.78;5017159;28;20203;-77
2022/02/26 06:48:35;;;;;;;3.53;1.65;;;;;;;1.50;82.08;103563.66;5016644;28;20041;-77
2022/02/26 06:51:00;;;;;;;3.53;1.85;;;;;;;1.48;82.14;103554.97;4999347;28;20041;-77
2022/02/26 06:53:26;;;;;;;2.30;1.52;;;;;;;1.48;82.23;103565.31;5016950;28;20293;-77
2022/02/26 06:55:51;;;;;;;2.58;1.75;;;;;;;1.48;82.18;103578.22;4999561;28;20041;-77
2022/02/26 06:58:17;;;;;;;1.83;1.55;;;;;;;1.47;82.44;103584.19;5016275;28;20041;-77
2022/02/26 07:00:42;;;;;;;2.47;1.63;;;;;;;1.48;82.27;103577.34;5016335;28;20337;-77
2022/02/26 07:03:08;;;;;;;3.72;1.85;;;;;;;1.48;82.27;103574.75;5015756;28;20104;-76
2022/02/26 07:05:33;;;;;;;3.30;1.90;;;;;;;1.49;82.42;103581.66;5015904;28;20284;-77
2022/02/26 07:07:58;;;;;;;2.70;1.48;;;;;;;1.48;82.41;103582.50;5015781;28;20021;-77
2022/02/26 07:10:24;;;;;;;5.13;1.73;;;;;;;1.47;82.38;103581.59;5016941;28;20357;-77
2022/02/26 07:12:49;;;;;;;3.15;1.30;;;;;;;1.48;82.48;103582.50;5017184;28;20238;-77
2022/02/26 07:15:15;;;;;;;2.35;1.80;;;;;;;1.48;82.22;103572.19;4999042;28;20337;-77
2022/02/26 07:17:40;;;;;;;4.75;1.63;;;;;;;1.48;82.25;103583.38;5015638;28;20041;-77
2022/02/26 07:20:07;;;;;;;2.10;1.80;;;;;;;1.48;82.37;103590.25;5015282;28;20054;-77
2022/02/26 07:22:32;;;;;;;3.13;1.48;;;;;;;1.49;82.42;103597.16;5016679;28;20053;-77
2022/02/26 07:24:57;;;;;;;2.17;1.35;;;;;;;1.49;82.42;103597.16;4997157;28;20050;-77
2022/02/26 07:27:23;;;;;;;3.25;1.33;;;;;;;1.51;82.70;103595.53;5015194;28;20065;-77
2022/02/26 07:29:48;;;;;;;4.28;2.00;;;;;;;1.52;82.72;103590.44;5014776;28;20080;-77
2022/02/26 07:32:14;;;;;;;3.47;1.88;;;;;;;1.54;82.59;103591.38;5015786;28;20245;-77
2022/02/26 07:34:39;;;;;;;2.78;1.90;;;;;;;1.56;82.79;103606.06;5011447;28;20261;-77
2022/02/26 07:37:05;;;;;;;6.30;2.83;;;;;;;1.56;83.13;103606.94;5026990;28;20078;-77
2022/02/26 07:39:30;;;;;;;5.90;2.78;;;;;;;1.59;83.41;103606.19;5021323;28;20341;-77
2022/02/26 07:41:56;;;;;;;4.00;2.90;;;;;;;1.61;83.61;103599.38;5017586;28;20056;-77
2022/02/26 07:44:21;;;;;;;10.27;3.60;;;;;;;1.64;83.92;103600.41;5021055;28;20044;-77
2022/02/26 07:46:47;;;;;;;4.75;3.10;;;;;;;1.65;84.30;103614.19;5036374;28;20229;-77
2022/02/26 07:49:12;;;;;;;4.55;3.33;;;;;;;1.66;84.73;103611.66;5033467;28;20059;-77
2022/02/26 07:51:38;;;;;;;4.15;3.65;;;;;;;1.70;84.91;103604.94;5025446;28;20100;-77
2022/02/26 07:54:03;;;;;;;6.05;3.78;;;;;;;1.71;85.08;103599.81;5029878;28;20111;-77
2022/02/26 07:56:29;;;;;;;6.70;4.97;;;;;;;1.73;85.31;103603.34;5025422;28;20055;-77
2022/02/26 07:58:54;;;;;;;7.03;4.35;;;;;;;1.77;85.67;103606.06;5034230;28;20029;-77
2022/02/26 08:01:20;;;;;;;7.80;4.63;;;;;;;1.78;85.82;103612.97;5016966;28;20274;-77
2022/02/26 08:03:45;;;;;;;8.35;4.85;;;;;;;1.80;86.05;103612.25;5021538;28;20268;-77
2022/02/26 08:06:11;;;;;;;8.13;5.32;;;;;;;1.82;86.40;103604.53;5022231;28;20046;-77
2022/02/26 08:08:36;;;;;;;6.85;5.40;;;;;;;1.84;86.50;103613.25;5001151;28;20045;-77
2022/02/26 08:11:02;;;;;;;9.48;5.97;;;;;;;1.86;86.67;103612.47;5032957;28;20108;-77
2022/02/26 08:13:27;;;;;;;9.05;5.47;;;;;;;1.89;86.85;103606.53;5016853;28;20088;-77
2022/02/26 08:15:53;;;;;;;7.88;5.68;;;;;;;1.91;87.11;103610.97;5016575;28;20562;-77
2022/02/26 08:18:18;;;;;;;7.07;5.32;;;;;;;1.95;87.14;103608.47;5034226;28;20103;-77
2022/02/26 08:20:44;;;;;;;9.65;5.85;;;;;;;1.97;87.29;103605.16;5023474;28;20058;-77
2022/02/26 08:23:09;;;;;;;6.80;6.00;;;;;;;1.98;87.60;103616.34;4995568;28;20331;-77
2022/02/26 08:25:35;;;;;;;6.80;5.38;;;;;;;1.99;87.69;103613.84;5017112;28;20116;-77
2022/02/26 08:28:00;;;;;;;8.15;5.55;;;;;;;2.03;87.84;103612.25;5034187;28;20366;-77
2022/02/26 08:30:26;;;;;;;9.88;6.95;;;;;;;2.03;88.04;103602.78;5033852;28;20041;-77
2022/02/26 08:32:52;;;;;;;15.73;6.63;;;;;;;2.07;88.16;103606.38;5031268;28;20045;-77
2022/02/26 08:35:18;;;;;;;6.18;5.53;;;;;;;2.10;88.29;103609.09;5026001;28;20151;-77
2022/02/26 08:37:46;;;;;;;7.20;6.03;;;;;;;2.13;88.37;103611.81;4999958;28;20333;-77
2022/02/26 08:40:12;;;;;;;7.27;5.93;;;;;;;2.14;88.45;103605.78;5033372;28;20257;-77
2022/02/26 08:42:38;;;;;;;7.80;6.65;;;;;;;2.17;88.66;103608.50;5032423;28;20396;-77
2022/02/26 08:45:06;;;;;;;8.35;6.78;;;;;;;2.20;88.74;103618.06;5017531;28;20045;-77
2022/02/26 08:47:31;;;;;;;6.72;6.13;;;;;;;2.22;89.01;103619.91;5009217;28;20038;-78
2022/02/26 08:49:57;;;;;;;9.85;7.53;;;;;;;2.26;89.08;103620.91;5034696;28;20049;-77
2022/02/26 08:52:23;;;;;;;7.60;6.80;;;;;;;2.29;89.03;103621.91;5034586;28;20339;-78
2022/02/26 08:54:48;;;;;;;14.32;9.77;;;;;;;2.32;89.31;103617.69;5031704;28;21167;-77
2022/02/26 08:57:14;;;;;;;11.60;9.52;;;;;;;2.34;89.26;103622.06;5030015;28;20034;-77
2022/02/26 08:59:39;;;;;;;11.10;8.57;;;;;;;2.38;89.68;103623.94;5040039;28;20038;-78
2022/02/26 09:02:05;;;;;;;10.68;9.00;;;;;;;2.41;89.69;103616.31;5034047;28;20037;-78
2022/02/26 09:04:31;;;;;;;10.65;8.57;;;;;;;2.45;90.04;103627.66;5035347;28;20048;-77
2022/02/26 09:06:56;;;;;;;10.02;8.02;;;;;;;2.48;89.94;103633.81;5036134;28;20367;-77
2022/02/26 09:09:22;;;;;;;9.98;8.18;;;;;;;2.52;90.12;103627.06;5031847;28;20029;-77
2022/02/26 09:11:47;;;;;;;10.70;8.38;;;;;;;2.56;90.21;103626.34;5019272;28;20368;-78
2022/02/26 09:14:12;;;;;;;16.02;9.73;;;;;;;2.59;90.42;103615.25;5037975;28;20241;-78
2022/02/26 09:16:38;;;;;;;13.75;9.10;;;;;;;2.63;90.68;103623.16;5036799;28;20214;-77
2022/02/26 09:19:04;;;;;;;14.90;9.73;;;;;;;2.67;90.53;103619.88;5035769;28;20029;-77
2022/02/26 09:21:29;;;;;;;26.50;15.38;;;;;;;2.71;90.94;103614.78;5046140;28;20056;-77
2022/02/26 09:23:55;;;;;;;21.65;13.15;;;;;;;2.76;90.85;103615.84;5035675;28;20072;-78
2022/02/26 09:26:20;;;;;;;13.95;9.75;;;;;;;2.79;91.13;103627.19;5037051;28;20477;-78
2022/02/26 09:28:46;;;;;;;11.43;8.82;;;;;;;2.83;91.14;103628.19;5038263;28;20421;-77
2022/02/26 09:31:13;;;;;;;28.65;14.63;;;;;;;2.86;91.58;103630.91;5014816;28;20030;-77
2022/02/26 09:33:39;;;;;;;27.63;16.50;;;;;;;2.88;92.37;103619.75;5031439;28;20068;-77
2022/02/26 09:36:05;;;;;;;23.05;14.18;;;;;;;2.95;92.29;103630.31;5038382;28;20033;-77
2022/02/26 09:38:32;;;;;;;25.83;14.20;;;;;;;2.98;92.28;103635.63;5019883;28;20151;-77
2022/02/26 09:41:00;;;;;;;21.63;13.38;;;;;;;3.02;92.29;103638.38;5038093;28;20051;-77
2022/02/26 09:43:26;;;;;;;27.73;13.20;;;;;;;3.06;92.28;103636.78;5033942;28;20029;-77
2022/02/26 09:45:54;;;;;;;29.90;13.85;;;;;;;3.11;92.57;103637.84;5038405;28;20079;-77
2022/02/26 09:48:20;;;;;;;25.02;13.30;;;;;;;3.15;92.58;103639.69;5038214;28;20336;-77
2022/02/26 09:50:46;;;;;;;23.98;12.80;;;;;;;3.20;92.40;103637.25;5020836;28;20048;-77
2022/02/26 09:53:12;;;;;;;20.80;11.98;;;;;;;3.24;92.73;103634.84;5038365;28;20049;-77
2022/02/26 09:55:38;;;;;;;28.10;14.23;;;;;;;3.29;92.90;103632.38;5020639;28;20233;-77
2022/02/26 09:58:04;;;;;;;27.20;12.23;;;;;;;3.33;92.83;103636.88;5035130;28;20411;-77
2022/02/26 10:00:30;;;;;;;19.05;11.43;;;;;;;3.38;92.90;103640.47;5038137;28;20028;-77
2022/02/26 10:02:56;;;;;;;29.92;12.20;;;;;;;3.41;92.72;103635.41;5037774;28;20041;-77
2022/02/26 10:05:22;;;;;;;22.42;10.77;;;;;;;3.45;92.62;103641.56;5020180;28;20029;-77
2022/02/26 10:07:50;;;;;;;18.83;10.77;;;;;;;3.49;92.39;103645.16;5020858;28;20107;-77
2022/02/26 10:10:24;;;;;;;18.40;9.93;;;;;;;3.52;92.26;103638.34;5021081;28;20334;-77
2022/02/26 10:12:52;;;;;;;23.13;10.88;;;;;;;3.58;92.16;103637.69;5028737;28;20048;-77
2022/02/26 10:15:23;;;;;;;25.02;11.05;;;;;;;3.61;92.21;103636.06;5037886;28;20033;-77
2022/02/26 10:18:07;;;;;;;32.10;11.55;;;;;;;3.68;92.22;103637.16;5038464;28;20059;-77
2022/02/26 10:20:33;;;;;;;22.98;10.10;;;;;;;3.72;92.04;103636.41;5038597;28;20036;-77
2022/02/26 10:22:59;;;;;;;21.50;8.80;;;;;;;3.75;91.90;103643.44;5020756;28;20065;-77
2022/02/26 10:25:29;;;;;;;24.42;8.70;;;;;;;3.79;91.56;103645.28;5038675;28;20044;-77
2022/02/26 10:27:58;;;;;;;28.17;8.93;;;;;;;3.83;91.30;103644.56;5038775;28;20044;-77
2022/02/26 10:30:29;;;;;;;17.30;6.65;;;;;;;3.89;90.85;103641.28;5038596;28;20089;-77
2022/02/26 10:33:06;;;;;;;19.48;6.40;;;;;;;3.95;90.65;103637.16;5038572;28;20025;-77
2022/02/26 10:35:55;;;;;;;18.17;6.68;;;;;;;4.00;90.17;103645.97;5033372;28;20083;-77
2022/02/26 10:38:30;;;;;;;20.38;6.65;;;;;;;4.07;90.15;103643.56;5020565;28;20202;-77
2022/02/26 10:41:00;;;;;;;16.40;5.78;;;;;;;4.14;90.00;103636.00;5032264;28;20060;-77
2022/02/26 10:43:38;;;;;;;20.92;5.45;;;;;;;4.20;89.36;103633.63;5022252;28;20385;-77
2022/02/26 10:46:25;;;;;;;9.60;4.18;;;;;;;4.26;88.47;103643.31;5033798;28;20039;-77
2022/02/26 10:49:02;;;;;;;10.55;4.50;;;;;;;4.33;87.85;103637.47;5036353;28;20070;-77
2022/02/26 10:51:33;;;;;;;14.20;4.85;;;;;;;4.38;87.95;103638.50;5037063;28;20225;-77
2022/02/26 10:54:04;;;;;;;14.43;4.85;;;;;;;4.44;87.89;103643.00;5019944;28;20021;-77
2022/02/26 10:56:33;;;;;;;15.93;4.40;;;;;;;4.48;87.29;103643.97;5009186;28;20233;-77
2022/02/26 10:58:59;;;;;;;7.97;3.35;;;;;;;4.53;87.30;103635.47;5037807;28;20140;-77
2022/02/26 11:01:24;;;;;;;15.82;2.95;;;;;;;4.58;86.16;103630.41;5020389;28;20331;-77
2022/02/26 11:03:54;;;;;;;11.35;3.35;;;;;;;4.63;85.93;103628.81;5020019;28;20283;-77
2022/02/26 11:06:20;;;;;;;8.85;2.58;;;;;;;4.68;86.03;103626.38;5037915;28;20052;-77
2022/02/26 11:08:46;;;;;;;7.65;2.83;;;;;;;4.72;85.92;103634.28;5018930;28;20065;-77
2022/02/26 11:11:12;;;;;;;16.33;3.35;;;;;;;4.75;85.95;103628.31;5037503;28;20045;-77
2022/02/26 11:13:38;;;;;;;15.52;3.47;;;;;;;4.77;85.65;103626.63;5036940;28;20158;-77
2022/02/26 11:16:05;;;;;;;12.05;3.20;;;;;;;4.82;85.55;103619.84;5021172;28;20034;-77
2022/02/26 11:18:40;;;;;;;12.15;3.65;;;;;;;4.85;84.80;103614.72;5037558;28;20356;-77
2022/02/26 11:21:08;;;;;;;17.52;3.72;;;;;;;4.90;84.86;103612.28;5037543;28;20322;-77
2022/02/26 11:23:34;;;;;;;14.23;3.20;;;;;;;4.95;83.82;103623.66;5037595;28;20140;-77
2022/02/26 11:26:00;;;;;;;11.13;3.20;;;;;;;5.00;83.59;103612.56;5037185;28;20100;-77
2022/02/26 11:28:27;;;;;;;9.40;2.72;;;;;;;5.07;83.83;103612.72;5035743;28;20037;-77